sensor_id;sensor_type;location;lat;lon;timestamp;temperature;humidity
45383;DHT22;42455;51.660;5.824;2023-02-15T00:01:05;4.6;90.5
45383;DHT22;42455;51.660;5.824;2023-02-15T00:06:06;4.5;90.5
45383;DHT22;42455;51.660;5.824;2023-02-15T00:11:15;4.5;90.5
45383;DHT22;42455;51.660;5.824;2023-02-15T00:16:18;4.4;90.5
45383;DHT22;42455;51.660;5.824;2023-02-15T00:21:24;4.3;90.5
45383;DHT22;42455;51.660;5.824;2023-02-15T00:26:30;4.2;90.5
45383;DHT22;42455;51.660;5.824;2023-02-15T00:31:37;4.2;90.5
45383;DHT22;42455;51.660;5.824;2023-02-15T00:36:43;4.1;91.0
45383;DHT22;42455;51.660;5.824;2023-02-15T00:41:49;4.1;91.0
45383;DHT22;42455;51.660;5.824;2023-02-15T00:46:55;4.1;91.0
45383;DHT22;42455;51.660;5.824;2023-02-15T00:52:01;4.0;91.0
45383;DHT22;42455;51.660;5.824;2023-02-15T00:57:07;4.0;91.0
45383;DHT22;42455;51.660;5.824;2023-02-15T01:02:14;4.0;91.0
45383;DHT22;42455;51.660;5.824;2023-02-15T01:07:20;4.0;91.5
45383;DHT22;42455;51.660;5.824;2023-02-15T01:12:26;3.9;91.5
45383;DHT22;42455;51.660;5.824;2023-02-15T01:17:32;3.9;91.5
45383;DHT22;42455;51.660;5.824;2023-02-15T01:32:51;3.9;91.5
45383;DHT22;42455;51.660;5.824;2023-02-15T01:37:57;3.8;91.5
45383;DHT22;42455;51.660;5.824;2023-02-15T01:43:09;3.8;91.5
45383;DHT22;42455;51.660;5.824;2023-02-15T01:48:22;3.8;91.5
45383;DHT22;42455;51.660;5.824;2023-02-15T01:58:23;3.7;91.5
45383;DHT22;42455;51.660;5.824;2023-02-15T02:03:36;3.7;91.5
45383;DHT22;42455;51.660;5.824;2023-02-15T02:08:40;3.7;91.5
45383;DHT22;42455;51.660;5.824;2023-02-15T02:13:45;3.7;91.5
45383;DHT22;42455;51.660;5.824;2023-02-15T02:20:15;3.6;92.0
45383;DHT22;42455;51.660;5.824;2023-02-15T02:27:33;3.6;92.0
45383;DHT22;42455;51.660;5.824;2023-02-15T02:33:47;3.6;92.0
45383;DHT22;42455;51.660;5.824;2023-02-15T02:38:52;3.6;92.0
45383;DHT22;42455;51.660;5.824;2023-02-15T02:43:57;3.5;92.0
45383;DHT22;42455;51.660;5.824;2023-02-15T02:47:42;3.5;92.0
45383;DHT22;42455;51.660;5.824;2023-02-15T02:50:06;3.5;92.0
45383;DHT22;42455;51.660;5.824;2023-02-15T02:55:11;3.5;92.0
45383;DHT22;42455;51.660;5.824;2023-02-15T03:00:17;3.5;92.0
45383;DHT22;42455;51.660;5.824;2023-02-15T03:05:24;3.5;92.0
45383;DHT22;42455;51.660;5.824;2023-02-15T03:10:27;3.4;92.0
45383;DHT22;42455;51.660;5.824;2023-02-15T03:15:36;1.7;123.0
45383;DHT22;42455;51.660;5.824;2023-02-15T03:20:39;3.4;92.0
45383;DHT22;42455;51.660;5.824;2023-02-15T03:25:49;3.3;92.0
45383;DHT22;42455;51.660;5.824;2023-02-15T03:30:55;3.3;92.0
45383;DHT22;42455;51.660;5.824;2023-02-15T03:36:08;3.3;92.0
45383;DHT22;42455;51.660;5.824;2023-02-15T03:41:06;3.3;92.0
45383;DHT22;42455;51.660;5.824;2023-02-15T03:46:12;3.3;92.0
45383;DHT22;42455;51.660;5.824;2023-02-15T03:51:21;3.2;92.0
45383;DHT22;42455;51.660;5.824;2023-02-15T03:56:23;3.2;92.0
45383;DHT22;42455;51.660;5.824;2023-02-15T04:01:37;3.2;92.0
45383;DHT22;42455;51.660;5.824;2023-02-15T04:06:35;3.1;92.0
45383;DHT22;42455;51.660;5.824;2023-02-15T04:11:41;3.1;92.0
45383;DHT22;42455;51.660;5.824;2023-02-15T04:16:47;3.1;92.0
45383;DHT22;42455;51.660;5.824;2023-02-15T04:21:53;3.0;92.0
45383;DHT22;42455;51.660;5.824;2023-02-15T04:26:59;3.0;92.0
45383;DHT22;42455;51.660;5.824;2023-02-15T04:32:05;2.9;92.0
45383;DHT22;42455;51.660;5.824;2023-02-15T04:37:11;2.9;92.0
45383;DHT22;42455;51.660;5.824;2023-02-15T04:42:18;2.9;92.0
45383;DHT22;42455;51.660;5.824;2023-02-15T04:47:24;2.8;92.5
45383;DHT22;42455;51.660;5.824;2023-02-15T04:52:29;2.8;92.5
45383;DHT22;42455;51.660;5.824;2023-02-15T04:57:35;2.8;92.5
45383;DHT22;42455;51.660;5.824;2023-02-15T05:02:41;2.8;92.5
45383;DHT22;42455;51.660;5.824;2023-02-15T05:07:47;2.8;92.5
45383;DHT22;42455;51.660;5.824;2023-02-15T05:12:53;2.7;92.5
45383;DHT22;42455;51.660;5.824;2023-02-15T05:17:59;2.7;92.5
45383;DHT22;42455;51.660;5.824;2023-02-15T05:23:05;2.7;92.5
45383;DHT22;42455;51.660;5.824;2023-02-15T05:28:12;2.7;92.5
45383;DHT22;42455;51.660;5.824;2023-02-15T05:33:18;2.7;92.5
45383;DHT22;42455;51.660;5.824;2023-02-15T05:38:24;2.7;93.0
45383;DHT22;42455;51.660;5.824;2023-02-15T05:43:30;2.7;93.0
45383;DHT22;42455;51.660;5.824;2023-02-15T05:48:36;2.7;93.0
45383;DHT22;42455;51.660;5.824;2023-02-15T05:53:43;2.7;93.0
45383;DHT22;42455;51.660;5.824;2023-02-15T05:58:49;2.7;93.0
45383;DHT22;42455;51.660;5.824;2023-02-15T06:03:55;2.7;93.0
45383;DHT22;42455;51.660;5.824;2023-02-15T06:09:02;2.7;93.0
45383;DHT22;42455;51.660;5.824;2023-02-15T06:14:07;2.7;93.0
45383;DHT22;42455;51.660;5.824;2023-02-15T06:19:14;2.7;93.0
45383;DHT22;42455;51.660;5.824;2023-02-15T06:24:20;2.6;92.5
45383;DHT22;42455;51.660;5.824;2023-02-15T06:29:26;2.6;92.5
45383;DHT22;42455;51.660;5.824;2023-02-15T06:34:32;2.6;92.5
45383;DHT22;42455;51.660;5.824;2023-02-15T06:39:38;2.5;92.5
45383;DHT22;42455;51.660;5.824;2023-02-15T06:44:45;2.5;92.5
45383;DHT22;42455;51.660;5.824;2023-02-15T06:49:50;2.5;92.5
45383;DHT22;42455;51.660;5.824;2023-02-15T06:54:56;2.4;92.5
45383;DHT22;42455;51.660;5.824;2023-02-15T07:00:03;2.4;92.5
45383;DHT22;42455;51.660;5.824;2023-02-15T07:05:09;2.4;93.0
45383;DHT22;42455;51.660;5.824;2023-02-15T07:10:15;2.4;93.0
45383;DHT22;42455;51.660;5.824;2023-02-15T07:15:21;2.3;93.0
45383;DHT22;42455;51.660;5.824;2023-02-15T07:20:27;2.3;93.0
45383;DHT22;42455;51.660;5.824;2023-02-15T07:25:34;2.3;93.0
45383;DHT22;42455;51.660;5.824;2023-02-15T07:30:40;2.3;93.0
45383;DHT22;42455;51.660;5.824;2023-02-15T07:35:47;2.4;93.0
45383;DHT22;42455;51.660;5.824;2023-02-15T07:40:57;2.4;93.5
45383;DHT22;42455;51.660;5.824;2023-02-15T07:45:59;2.5;93.5
45383;DHT22;42455;51.660;5.824;2023-02-15T07:51:07;2.6;94.0
45383;DHT22;42455;51.660;5.824;2023-02-15T07:56:12;2.7;93.5
45383;DHT22;42455;51.660;5.824;2023-02-15T08:01:18;2.8;94.0
45383;DHT22;42455;51.660;5.824;2023-02-15T08:06:25;2.9;94.0
45383;DHT22;42455;51.660;5.824;2023-02-15T08:11:31;3.0;94.0
45383;DHT22;42455;51.660;5.824;2023-02-15T08:16:38;3.1;94.0
45383;DHT22;42455;51.660;5.824;2023-02-15T08:21:45;3.2;94.0
45383;DHT22;42455;51.660;5.824;2023-02-15T08:26:48;3.4;94.5
45383;DHT22;42455;51.660;5.824;2023-02-15T08:31:56;3.5;94.5
45383;DHT22;42455;51.660;5.824;2023-02-15T08:37:00;3.6;94.5
45383;DHT22;42455;51.660;5.824;2023-02-15T08:42:06;3.7;94.5
45383;DHT22;42455;51.660;5.824;2023-02-15T08:47:11;3.9;94.5
45383;DHT22;42455;51.660;5.824;2023-02-15T08:57:23;4.2;95.0
45383;DHT22;42455;51.660;5.824;2023-02-15T09:02:28;4.3;95.0
45383;DHT22;42455;51.660;5.824;2023-02-15T09:07:35;4.5;95.0
45383;DHT22;42455;51.660;5.824;2023-02-15T09:12:41;4.7;95.5
45383;DHT22;42455;51.660;5.824;2023-02-15T09:17:47;4.9;95.5
45383;DHT22;42455;51.660;5.824;2023-02-15T09:22:53;5.1;95.5
45383;DHT22;42455;51.660;5.824;2023-02-15T09:27:59;5.3;95.5
45383;DHT22;42455;51.660;5.824;2023-02-15T09:33:06;5.5;95.5
45383;DHT22;42455;51.660;5.824;2023-02-15T09:38:12;5.8;95.5
45383;DHT22;42455;51.660;5.824;2023-02-15T09:44:15;6.0;95.5
45383;DHT22;42455;51.660;5.824;2023-02-15T09:49:58;6.2;95.5
45383;DHT22;42455;51.660;5.824;2023-02-15T09:56:02;6.4;95.5
45383;DHT22;42455;51.660;5.824;2023-02-15T10:01:24;6.6;95.5
45383;DHT22;42455;51.660;5.824;2023-02-15T10:07:57;6.9;95.5
45383;DHT22;42455;51.660;5.824;2023-02-15T10:14:32;7.1;95.5
45383;DHT22;42455;51.660;5.824;2023-02-15T10:20:34;7.4;95.5
45383;DHT22;42455;51.660;5.824;2023-02-15T10:26:28;7.7;95.5
45383;DHT22;42455;51.660;5.824;2023-02-15T10:27:50;8.0;95.5
45383;DHT22;42455;51.660;5.824;2023-02-15T10:29:37;8.3;95.0
45383;DHT22;42455;51.660;5.824;2023-02-15T10:34:35;8.5;95.0
45383;DHT22;42455;51.660;5.824;2023-02-15T10:40:11;8.8;94.5
45383;DHT22;42455;51.660;5.824;2023-02-15T10:46:54;9.1;94.5
45383;DHT22;42455;51.660;5.824;2023-02-15T10:51:29;9.4;94.0
45383;DHT22;42455;51.660;5.824;2023-02-15T10:57:50;9.6;94.0
45383;DHT22;42455;51.660;5.824;2023-02-15T11:02:20;9.9;93.5
45383;DHT22;42455;51.660;5.824;2023-02-15T11:06:53;10.1;93.0
45383;DHT22;42455;51.660;5.824;2023-02-15T11:10:14;10.4;93.0
45383;DHT22;42455;51.660;5.824;2023-02-15T11:15:29;10.7;92.5
45383;DHT22;42455;51.660;5.824;2023-02-15T11:20:23;10.9;92.0
45383;DHT22;42455;51.660;5.824;2023-02-15T11:25:32;11.2;91.5
45383;DHT22;42455;51.660;5.824;2023-02-15T11:30:33;11.4;91.0
45383;DHT22;42455;51.660;5.824;2023-02-15T11:35:48;11.7;90.5
45383;DHT22;42455;51.660;5.824;2023-02-15T11:40:47;11.9;90.0
45383;DHT22;42455;51.660;5.824;2023-02-15T11:45:46;12.2;90.0
45383;DHT22;42455;51.660;5.824;2023-02-15T11:50:52;12.5;89.5
45383;DHT22;42455;51.660;5.824;2023-02-15T11:55:59;12.7;89.0
45383;DHT22;42455;51.660;5.824;2023-02-15T12:01:13;12.9;88.0
45383;DHT22;42455;51.660;5.824;2023-02-15T12:06:17;13.1;87.5
45383;DHT22;42455;51.660;5.824;2023-02-15T12:11:22;13.3;86.5
45383;DHT22;42455;51.660;5.824;2023-02-15T12:16:24;13.5;86.0
45383;DHT22;42455;51.660;5.824;2023-02-15T12:21:33;13.8;86.0
45383;DHT22;42455;51.660;5.824;2023-02-15T12:26:36;14.0;85.0
45383;DHT22;42455;51.660;5.824;2023-02-15T12:31:44;14.2;83.5
45383;DHT22;42455;51.660;5.824;2023-02-15T12:36:53;14.4;83.5
45383;DHT22;42455;51.660;5.824;2023-02-15T12:42:02;14.6;83.0
45383;DHT22;42455;51.660;5.824;2023-02-15T12:47:02;14.8;82.5
45383;DHT22;42455;51.660;5.824;2023-02-15T12:52:23;14.9;81.5
45383;DHT22;42455;51.660;5.824;2023-02-15T12:57:31;15.0;81.0
45383;DHT22;42455;51.660;5.824;2023-02-15T13:02:24;15.2;80.5
45383;DHT22;42455;51.660;5.824;2023-02-15T13:07:31;15.2;80.5
45383;DHT22;42455;51.660;5.824;2023-02-15T13:12:31;15.4;80.0
45383;DHT22;42455;51.660;5.824;2023-02-15T13:17:37;15.5;79.5
45383;DHT22;42455;51.660;5.824;2023-02-15T13:22:46;15.6;79.0
45383;DHT22;42455;51.660;5.824;2023-02-15T13:27:54;15.7;78.5
45383;DHT22;42455;51.660;5.824;2023-02-15T13:33:00;15.7;78.5
45383;DHT22;42455;51.660;5.824;2023-02-15T13:38:44;15.8;78.0
45383;DHT22;42455;51.660;5.824;2023-02-15T13:43:33;15.8;77.5
45383;DHT22;42455;51.660;5.824;2023-02-15T13:49:40;15.9;77.0
45383;DHT22;42455;51.660;5.824;2023-02-15T13:55:32;15.9;77.0
45383;DHT22;42455;51.660;5.824;2023-02-15T14:01:31;16.0;76.5
45383;DHT22;42455;51.660;5.824;2023-02-15T14:07:33;16.0;76.5
45383;DHT22;42455;51.660;5.824;2023-02-15T14:13:55;16.1;76.0
45383;DHT22;42455;51.660;5.824;2023-02-15T14:18:43;16.1;76.0
45383;DHT22;42455;51.660;5.824;2023-02-15T14:23:29;16.1;76.0
45383;DHT22;42455;51.660;5.824;2023-02-15T14:28:09;16.1;75.5
45383;DHT22;42455;51.660;5.824;2023-02-15T14:30:57;16.1;75.5
45383;DHT22;42455;51.660;5.824;2023-02-15T14:34:18;16.0;75.5
45383;DHT22;42455;51.660;5.824;2023-02-15T14:40:05;16.0;75.5
45383;DHT22;42455;51.660;5.824;2023-02-15T14:45:03;16.0;75.5
45383;DHT22;42455;51.660;5.824;2023-02-15T14:55:00;15.9;75.5
45383;DHT22;42455;51.660;5.824;2023-02-15T14:59:43;15.9;76.0
45383;DHT22;42455;51.660;5.824;2023-02-15T15:09:59;15.8;76.0
45383;DHT22;42455;51.660;5.824;2023-02-15T15:14:59;15.7;76.0
45383;DHT22;42455;51.660;5.824;2023-02-15T15:20:39;15.7;76.0
45383;DHT22;42455;51.660;5.824;2023-02-15T15:25:39;15.7;75.5
45383;DHT22;42455;51.660;5.824;2023-02-15T15:30:49;15.6;75.5
45383;DHT22;42455;51.660;5.824;2023-02-15T15:36:56;15.6;75.5
45383;DHT22;42455;51.660;5.824;2023-02-15T15:44:59;15.5;75.5
45383;DHT22;42455;51.660;5.824;2023-02-15T15:48:43;15.4;75.5
45383;DHT22;42455;51.660;5.824;2023-02-15T15:50:53;15.3;75.5
45383;DHT22;42455;51.660;5.824;2023-02-15T15:56:08;15.2;75.5
45383;DHT22;42455;51.660;5.824;2023-02-15T16:01:23;15.1;75.0
45383;DHT22;42455;51.660;5.824;2023-02-15T16:06:41;15.0;74.5
45383;DHT22;42455;51.660;5.824;2023-02-15T16:11:41;14.9;74.5
45383;DHT22;42455;51.660;5.824;2023-02-15T16:16:57;14.7;74.5
45383;DHT22;42455;51.660;5.824;2023-02-15T16:22:10;14.6;74.5
45383;DHT22;42455;51.660;5.824;2023-02-15T16:27:41;14.5;74.5
45383;DHT22;42455;51.660;5.824;2023-02-15T16:32:19;14.3;74.5
45383;DHT22;42455;51.660;5.824;2023-02-15T16:37:24;14.2;74.5
45383;DHT22;42455;51.660;5.824;2023-02-15T16:42:29;14.1;74.5
45383;DHT22;42455;51.660;5.824;2023-02-15T16:47:40;13.9;74.5
45383;DHT22;42455;51.660;5.824;2023-02-15T16:52:42;13.8;75.0
45383;DHT22;42455;51.660;5.824;2023-02-15T16:57:49;13.7;75.0
45383;DHT22;42455;51.660;5.824;2023-02-15T17:02:59;13.5;75.5
45383;DHT22;42455;51.660;5.824;2023-02-15T17:08:16;13.4;75.5
45383;DHT22;42455;51.660;5.824;2023-02-15T17:13:10;13.3;75.5
45383;DHT22;42455;51.660;5.824;2023-02-15T17:18:19;13.2;75.5
45383;DHT22;42455;51.660;5.824;2023-02-15T17:23:31;13.0;76.0
45383;DHT22;42455;51.660;5.824;2023-02-15T17:28:30;12.9;76.5
45383;DHT22;42455;51.660;5.824;2023-02-15T17:33:38;12.8;76.5
45383;DHT22;42455;51.660;5.824;2023-02-15T17:38:39;12.7;76.5
45383;DHT22;42455;51.660;5.824;2023-02-15T17:43:44;12.6;77.0
45383;DHT22;42455;51.660;5.824;2023-02-15T17:48:51;12.5;77.0
45383;DHT22;42455;51.660;5.824;2023-02-15T17:53:56;12.4;77.0
45383;DHT22;42455;51.660;5.824;2023-02-15T17:59:03;12.3;77.5
45383;DHT22;42455;51.660;5.824;2023-02-15T18:04:12;12.2;77.5
45383;DHT22;42455;51.660;5.824;2023-02-15T18:09:15;12.1;78.0
45383;DHT22;42455;51.660;5.824;2023-02-15T18:14:20;12.0;78.0
45383;DHT22;42455;51.660;5.824;2023-02-15T18:19:27;11.9;78.0
45383;DHT22;42455;51.660;5.824;2023-02-15T18:24:33;11.8;78.0
45383;DHT22;42455;51.660;5.824;2023-02-15T18:29:39;11.7;78.5
45383;DHT22;42455;51.660;5.824;2023-02-15T18:34:46;11.5;78.5
45383;DHT22;42455;51.660;5.824;2023-02-15T18:39:51;11.4;79.0
45383;DHT22;42455;51.660;5.824;2023-02-15T18:45:01;11.4;79.5
45383;DHT22;42455;51.660;5.824;2023-02-15T18:50:04;11.3;79.5
45383;DHT22;42455;51.660;5.824;2023-02-15T18:55:17;11.2;79.5
45383;DHT22;42455;51.660;5.824;2023-02-15T19:00:18;11.1;80.0
45383;DHT22;42455;51.660;5.824;2023-02-15T19:05:23;11.1;80.0
45383;DHT22;42455;51.660;5.824;2023-02-15T19:10:32;11.0;80.0
45383;DHT22;42455;51.660;5.824;2023-02-15T19:15:35;10.9;80.5
45383;DHT22;42455;51.660;5.824;2023-02-15T19:20:43;10.9;80.5
45383;DHT22;42455;51.660;5.824;2023-02-15T19:25:48;10.9;81.0
45383;DHT22;42455;51.660;5.824;2023-02-15T19:30:53;10.8;81.0
45383;DHT22;42455;51.660;5.824;2023-02-15T19:35:59;10.8;81.0
45383;DHT22;42455;51.660;5.824;2023-02-15T19:41:07;10.7;81.0
45383;DHT22;42455;51.660;5.824;2023-02-15T19:46:15;10.7;81.5
45383;DHT22;42455;51.660;5.824;2023-02-15T19:51:20;10.6;81.5
45383;DHT22;42455;51.660;5.824;2023-02-15T19:56:23;10.5;82.0
45383;DHT22;42455;51.660;5.824;2023-02-15T20:01:30;10.5;82.0
45383;DHT22;42455;51.660;5.824;2023-02-15T20:06:35;10.5;82.0
45383;DHT22;42455;51.660;5.824;2023-02-15T20:11:41;10.4;82.0
45383;DHT22;42455;51.660;5.824;2023-02-15T20:16:46;10.4;82.5
45383;DHT22;42455;51.660;5.824;2023-02-15T20:21:53;10.4;82.5
45383;DHT22;42455;51.660;5.824;2023-02-15T20:26:59;10.3;82.5
45383;DHT22;42455;51.660;5.824;2023-02-15T20:32:08;10.3;82.5
45383;DHT22;42455;51.660;5.824;2023-02-15T20:37:17;10.2;83.0
45383;DHT22;42455;51.660;5.824;2023-02-15T20:42:17;10.2;83.0
45383;DHT22;42455;51.660;5.824;2023-02-15T20:47:24;10.2;83.5
45383;DHT22;42455;51.660;5.824;2023-02-15T20:52:30;10.1;83.5
45383;DHT22;42455;51.660;5.824;2023-02-15T20:57:36;10.1;83.5
45383;DHT22;42455;51.660;5.824;2023-02-15T21:02:42;10.1;83.5
45383;DHT22;42455;51.660;5.824;2023-02-15T21:07:51;10.0;83.5
45383;DHT22;42455;51.660;5.824;2023-02-15T21:12:55;10.0;83.5
45383;DHT22;42455;51.660;5.824;2023-02-15T21:18:03;10.0;84.0
45383;DHT22;42455;51.660;5.824;2023-02-15T21:23:09;10.0;84.0
45383;DHT22;42455;51.660;5.824;2023-02-15T21:28:19;9.9;84.0
45383;DHT22;42455;51.660;5.824;2023-02-15T21:33:19;9.9;84.0
45383;DHT22;42455;51.660;5.824;2023-02-15T21:38:28;9.9;84.5
45383;DHT22;42455;51.660;5.824;2023-02-15T21:43:31;9.8;84.5
45383;DHT22;42455;51.660;5.824;2023-02-15T21:48:37;9.8;84.5
45383;DHT22;42455;51.660;5.824;2023-02-15T21:53:45;9.8;85.0
45383;DHT22;42455;51.660;5.824;2023-02-15T21:58:49;9.8;85.0
45383;DHT22;42455;51.660;5.824;2023-02-15T22:03:57;9.9;85.0
45383;DHT22;42455;51.660;5.824;2023-02-15T22:09:01;9.8;85.0
45383;DHT22;42455;51.660;5.824;2023-02-15T22:14:19;9.8;85.0
45383;DHT22;42455;51.660;5.824;2023-02-15T22:19:17;9.8;85.0
45383;DHT22;42455;51.660;5.824;2023-02-15T22:24:19;9.7;85.0
45383;DHT22;42455;51.660;5.824;2023-02-15T22:29:25;9.7;85.0
45383;DHT22;42455;51.660;5.824;2023-02-15T22:34:31;9.6;85.0
45383;DHT22;42455;51.660;5.824;2023-02-15T22:39:37;9.6;85.0
45383;DHT22;42455;51.660;5.824;2023-02-15T22:44:44;9.5;85.0
45383;DHT22;42455;51.660;5.824;2023-02-15T22:49:50;9.5;85.0
45383;DHT22;42455;51.660;5.824;2023-02-15T22:54:56;9.4;85.5
45383;DHT22;42455;51.660;5.824;2023-02-15T23:00:03;9.3;85.5
45383;DHT22;42455;51.660;5.824;2023-02-15T23:05:15;9.3;85.5
45383;DHT22;42455;51.660;5.824;2023-02-15T23:10:15;9.2;85.5
45383;DHT22;42455;51.660;5.824;2023-02-15T23:15:21;9.1;85.5
45383;DHT22;42455;51.660;5.824;2023-02-15T23:20:27;9.1;85.5
45383;DHT22;42455;51.660;5.824;2023-02-15T23:25:33;9.0;86.0
45383;DHT22;42455;51.660;5.824;2023-02-15T23:30:39;8.9;86.0
45383;DHT22;42455;51.660;5.824;2023-02-15T23:35:46;8.9;86.0
45383;DHT22;42455;51.660;5.824;2023-02-15T23:40:54;8.8;86.0
45383;DHT22;42455;51.660;5.824;2023-02-15T23:45:58;8.8;86.5
45383;DHT22;42455;51.660;5.824;2023-02-15T23:51:05;8.7;86.5
45383;DHT22;42455;51.660;5.824;2023-02-15T23:56:12;8.7;86.5
